sensor_id;sensor_type;location;lat;lon;timestamp;P1;durP1;ratioP1;P2;durP2;ratioP2
4748;SDS011;2388;53.582;9.962;2024-01-07T00:01:47;1.13;;;1.02;;
4748;SDS011;2388;53.582;9.962;2024-01-07T00:04:14;2.40;;;1.10;;
4748;SDS011;2388;53.582;9.962;2024-01-07T00:06:40;0.93;;;0.93;;
4748;SDS011;2388;53.582;9.962;2024-01-07T00:09:05;3.37;;;0.93;;
4748;SDS011;2388;53.582;9.962;2024-01-07T00:11:31;1.13;;;1.03;;
4748;SDS011;2388;53.582;9.962;2024-01-07T00:13:57;1.07;;;0.97;;
4748;SDS011;2388;53.582;9.962;2024-01-07T00:16:23;1.83;;;1.05;;
4748;SDS011;2388;53.582;9.962;2024-01-07T00:18:48;1.77;;;0.80;;
4748;SDS011;2388;53.582;9.962;2024-01-07T00:21:14;0.80;;;0.80;;
4748;SDS011;2388;53.582;9.962;2024-01-07T00:23:39;0.60;;;0.50;;
4748;SDS011;2388;53.582;9.962;2024-01-07T00:26:05;1.73;;;1.00;;
4748;SDS011;2388;53.582;9.962;2024-01-07T00:28:31;2.47;;;0.73;;
4748;SDS011;2388;53.582;9.962;2024-01-07T00:30:56;2.50;;;1.03;;
4748;SDS011;2388;53.582;9.962;2024-01-07T00:33:22;3.40;;;0.70;;
4748;SDS011;2388;53.582;9.962;2024-01-07T00:35:47;1.00;;;0.90;;
4748;SDS011;2388;53.582;9.962;2024-01-07T00:38:13;0.90;;;0.77;;
4748;SDS011;2388;53.582;9.962;2024-01-07T00:40:38;1.13;;;0.90;;
4748;SDS011;2388;53.582;9.962;2024-01-07T00:43:04;1.90;;;1.50;;
4748;SDS011;2388;53.582;9.962;2024-01-07T00:45:29;1.40;;;1.10;;
4748;SDS011;2388;53.582;9.962;2024-01-07T00:47:55;2.23;;;1.03;;
4748;SDS011;2388;53.582;9.962;2024-01-07T00:50:20;1.30;;;1.00;;
4748;SDS011;2388;53.582;9.962;2024-01-07T00:52:45;1.83;;;1.17;;
4748;SDS011;2388;53.582;9.962;2024-01-07T00:55:11;1.63;;;1.40;;
4748;SDS011;2388;53.582;9.962;2024-01-07T00:57:37;0.97;;;0.87;;
4748;SDS011;2388;53.582;9.962;2024-01-07T01:00:05;1.20;;;0.80;;
4748;SDS011;2388;53.582;9.962;2024-01-07T01:02:31;1.10;;;1.00;;
4748;SDS011;2388;53.582;9.962;2024-01-07T01:04:57;3.57;;;1.50;;
4748;SDS011;2388;53.582;9.962;2024-01-07T01:07:22;0.57;;;0.57;;
4748;SDS011;2388;53.582;9.962;2024-01-07T01:09:48;3.33;;;0.93;;
4748;SDS011;2388;53.582;9.962;2024-01-07T01:12:14;1.20;;;0.70;;
4748;SDS011;2388;53.582;9.962;2024-01-07T01:14:39;0.70;;;0.70;;
4748;SDS011;2388;53.582;9.962;2024-01-07T01:17:06;0.93;;;0.80;;
4748;SDS011;2388;53.582;9.962;2024-01-07T01:19:31;1.83;;;0.80;;
4748;SDS011;2388;53.582;9.962;2024-01-07T01:21:57;1.10;;;1.00;;
4748;SDS011;2388;53.582;9.962;2024-01-07T01:24:22;1.00;;;0.80;;
4748;SDS011;2388;53.582;9.962;2024-01-07T01:26:48;1.17;;;0.83;;
4748;SDS011;2388;53.582;9.962;2024-01-07T01:29:13;3.43;;;1.30;;
4748;SDS011;2388;53.582;9.962;2024-01-07T01:31:39;2.10;;;0.80;;
4748;SDS011;2388;53.582;9.962;2024-01-07T01:34:04;1.27;;;0.77;;
4748;SDS011;2388;53.582;9.962;2024-01-07T01:36:32;1.03;;;0.93;;
4748;SDS011;2388;53.582;9.962;2024-01-07T01:38:58;1.50;;;0.98;;
4748;SDS011;2388;53.582;9.962;2024-01-07T01:41:23;3.17;;;1.07;;
4748;SDS011;2388;53.582;9.962;2024-01-07T01:43:49;0.60;;;0.60;;
4748;SDS011;2388;53.582;9.962;2024-01-07T01:46:14;1.70;;;1.07;;
4748;SDS011;2388;53.582;9.962;2024-01-07T01:48:40;1.50;;;1.07;;
4748;SDS011;2388;53.582;9.962;2024-01-07T01:51:07;1.90;;;0.80;;
4748;SDS011;2388;53.582;9.962;2024-01-07T01:53:33;1.55;;;0.95;;
4748;SDS011;2388;53.582;9.962;2024-01-07T01:55:59;1.73;;;1.10;;
4748;SDS011;2388;53.582;9.962;2024-01-07T01:58:27;1.88;;;0.80;;
4748;SDS011;2388;53.582;9.962;2024-01-07T02:00:54;1.10;;;0.80;;
4748;SDS011;2388;53.582;9.962;2024-01-07T02:03:20;1.65;;;0.60;;
4748;SDS011;2388;53.582;9.962;2024-01-07T02:05:45;1.53;;;0.80;;
4748;SDS011;2388;53.582;9.962;2024-01-07T02:08:14;1.15;;;0.80;;
4748;SDS011;2388;53.582;9.962;2024-01-07T02:10:40;0.90;;;0.80;;
4748;SDS011;2388;53.582;9.962;2024-01-07T02:13:05;0.60;;;0.60;;
4748;SDS011;2388;53.582;9.962;2024-01-07T02:15:31;5.07;;;0.97;;
4748;SDS011;2388;53.582;9.962;2024-01-07T02:17:56;1.93;;;0.90;;
4748;SDS011;2388;53.582;9.962;2024-01-07T02:20:22;1.10;;;0.90;;
4748;SDS011;2388;53.582;9.962;2024-01-07T02:22:48;0.75;;;0.70;;
4748;SDS011;2388;53.582;9.962;2024-01-07T02:25:14;0.80;;;0.67;;
4748;SDS011;2388;53.582;9.962;2024-01-07T02:27:39;1.80;;;0.73;;
4748;SDS011;2388;53.582;9.962;2024-01-07T02:30:05;2.80;;;0.83;;
4748;SDS011;2388;53.582;9.962;2024-01-07T02:32:31;0.95;;;0.85;;
4748;SDS011;2388;53.582;9.962;2024-01-07T02:34:59;0.88;;;0.60;;
4748;SDS011;2388;53.582;9.962;2024-01-07T02:37:25;1.77;;;0.80;;
4748;SDS011;2388;53.582;9.962;2024-01-07T02:39:50;1.10;;;0.83;;
4748;SDS011;2388;53.582;9.962;2024-01-07T02:42:16;1.77;;;0.90;;
4748;SDS011;2388;53.582;9.962;2024-01-07T02:44:41;1.53;;;0.90;;
4748;SDS011;2388;53.582;9.962;2024-01-07T02:47:07;1.50;;;0.70;;
4748;SDS011;2388;53.582;9.962;2024-01-07T02:49:32;5.20;;;0.80;;
4748;SDS011;2388;53.582;9.962;2024-01-07T02:51:58;1.50;;;0.70;;
4748;SDS011;2388;53.582;9.962;2024-01-07T02:54:23;2.30;;;0.83;;
4748;SDS011;2388;53.582;9.962;2024-01-07T02:56:49;1.97;;;0.90;;
4748;SDS011;2388;53.582;9.962;2024-01-07T02:59:14;2.83;;;0.70;;
4748;SDS011;2388;53.582;9.962;2024-01-07T03:01:39;1.57;;;0.80;;
4748;SDS011;2388;53.582;9.962;2024-01-07T03:04:09;1.60;;;1.07;;
4748;SDS011;2388;53.582;9.962;2024-01-07T03:06:37;1.10;;;0.98;;
4748;SDS011;2388;53.582;9.962;2024-01-07T03:09:02;0.70;;;0.60;;
4748;SDS011;2388;53.582;9.962;2024-01-07T03:11:28;0.70;;;0.70;;
4748;SDS011;2388;53.582;9.962;2024-01-07T03:13:54;2.15;;;0.60;;
4748;SDS011;2388;53.582;9.962;2024-01-07T03:16:23;1.63;;;1.00;;
4748;SDS011;2388;53.582;9.962;2024-01-07T03:18:50;2.70;;;1.05;;
4748;SDS011;2388;53.582;9.962;2024-01-07T03:21:17;1.95;;;0.90;;
4748;SDS011;2388;53.582;9.962;2024-01-07T03:23:46;1.52;;;0.65;;
4748;SDS011;2388;53.582;9.962;2024-01-07T03:26:12;1.52;;;1.08;;
4748;SDS011;2388;53.582;9.962;2024-01-07T03:28:38;0.90;;;0.70;;
4748;SDS011;2388;53.582;9.962;2024-01-07T03:31:14;1.33;;;0.90;;
4748;SDS011;2388;53.582;9.962;2024-01-07T03:33:41;0.82;;;0.60;;
4748;SDS011;2388;53.582;9.962;2024-01-07T03:36:08;1.45;;;1.10;;
4748;SDS011;2388;53.582;9.962;2024-01-07T03:38:35;1.95;;;0.70;;
4748;SDS011;2388;53.582;9.962;2024-01-07T03:41:02;1.40;;;0.70;;
4748;SDS011;2388;53.582;9.962;2024-01-07T03:43:27;0.70;;;0.70;;
4748;SDS011;2388;53.582;9.962;2024-01-07T03:45:53;2.57;;;0.80;;
4748;SDS011;2388;53.582;9.962;2024-01-07T03:48:18;0.80;;;0.60;;
4748;SDS011;2388;53.582;9.962;2024-01-07T03:50:44;1.05;;;0.80;;
4748;SDS011;2388;53.582;9.962;2024-01-07T03:53:10;2.90;;;0.90;;
4748;SDS011;2388;53.582;9.962;2024-01-07T03:55:35;0.73;;;0.57;;
4748;SDS011;2388;53.582;9.962;2024-01-07T03:58:01;1.77;;;0.80;;
4748;SDS011;2388;53.582;9.962;2024-01-07T04:00:27;2.20;;;0.70;;
4748;SDS011;2388;53.582;9.962;2024-01-07T04:02:52;1.40;;;0.67;;
4748;SDS011;2388;53.582;9.962;2024-01-07T04:05:18;1.53;;;0.60;;
4748;SDS011;2388;53.582;9.962;2024-01-07T04:07:43;2.50;;;0.60;;
4748;SDS011;2388;53.582;9.962;2024-01-07T04:10:09;5.13;;;0.70;;
4748;SDS011;2388;53.582;9.962;2024-01-07T04:12:36;1.67;;;0.60;;
4748;SDS011;2388;53.582;9.962;2024-01-07T04:15:02;0.70;;;0.68;;
4748;SDS011;2388;53.582;9.962;2024-01-07T04:17:28;0.70;;;0.60;;
4748;SDS011;2388;53.582;9.962;2024-01-07T04:19:54;1.90;;;0.67;;
4748;SDS011;2388;53.582;9.962;2024-01-07T04:22:19;0.60;;;0.60;;
4748;SDS011;2388;53.582;9.962;2024-01-07T04:24:45;2.17;;;0.67;;
4748;SDS011;2388;53.582;9.962;2024-01-07T04:27:10;3.03;;;0.60;;
4748;SDS011;2388;53.582;9.962;2024-01-07T04:29:36;1.37;;;0.70;;
4748;SDS011;2388;53.582;9.962;2024-01-07T04:32:02;0.73;;;0.50;;
4748;SDS011;2388;53.582;9.962;2024-01-07T04:34:27;3.10;;;0.80;;
4748;SDS011;2388;53.582;9.962;2024-01-07T04:36:53;1.07;;;0.50;;
4748;SDS011;2388;53.582;9.962;2024-01-07T04:39:18;1.07;;;0.63;;
4748;SDS011;2388;53.582;9.962;2024-01-07T04:41:44;1.80;;;0.60;;
4748;SDS011;2388;53.582;9.962;2024-01-07T04:44:09;0.87;;;0.60;;
4748;SDS011;2388;53.582;9.962;2024-01-07T04:46:37;3.43;;;0.50;;
4748;SDS011;2388;53.582;9.962;2024-01-07T04:49:03;0.50;;;0.40;;
4748;SDS011;2388;53.582;9.962;2024-01-07T04:51:28;2.83;;;0.70;;
4748;SDS011;2388;53.582;9.962;2024-01-07T04:53:54;1.03;;;0.50;;
4748;SDS011;2388;53.582;9.962;2024-01-07T04:56:20;2.30;;;0.60;;
4748;SDS011;2388;53.582;9.962;2024-01-07T04:58:45;0.70;;;0.47;;
4748;SDS011;2388;53.582;9.962;2024-01-07T05:01:11;0.97;;;0.40;;
4748;SDS011;2388;53.582;9.962;2024-01-07T05:03:36;2.03;;;0.40;;
4748;SDS011;2388;53.582;9.962;2024-01-07T05:06:03;0.77;;;0.40;;
4748;SDS011;2388;53.582;9.962;2024-01-07T05:08:29;1.20;;;0.50;;
4748;SDS011;2388;53.582;9.962;2024-01-07T05:10:54;2.47;;;0.90;;
4748;SDS011;2388;53.582;9.962;2024-01-07T05:13:20;0.83;;;0.43;;
4748;SDS011;2388;53.582;9.962;2024-01-07T05:15:45;1.40;;;0.47;;
4748;SDS011;2388;53.582;9.962;2024-01-07T05:18:18;1.00;;;0.63;;
4748;SDS011;2388;53.582;9.962;2024-01-07T05:20:47;3.03;;;0.80;;
4748;SDS011;2388;53.582;9.962;2024-01-07T05:23:12;1.60;;;0.57;;
4748;SDS011;2388;53.582;9.962;2024-01-07T05:25:38;4.33;;;0.50;;
4748;SDS011;2388;53.582;9.962;2024-01-07T05:28:03;0.80;;;0.50;;
4748;SDS011;2388;53.582;9.962;2024-01-07T05:30:29;0.60;;;0.40;;
4748;SDS011;2388;53.582;9.962;2024-01-07T05:32:55;1.40;;;0.60;;
4748;SDS011;2388;53.582;9.962;2024-01-07T05:35:21;0.50;;;0.40;;
4748;SDS011;2388;53.582;9.962;2024-01-07T05:37:46;3.23;;;0.90;;
4748;SDS011;2388;53.582;9.962;2024-01-07T05:40:11;0.70;;;0.40;;
4748;SDS011;2388;53.582;9.962;2024-01-07T05:42:37;0.47;;;0.40;;
4748;SDS011;2388;53.582;9.962;2024-01-07T05:45:03;1.70;;;0.73;;
4748;SDS011;2388;53.582;9.962;2024-01-07T05:47:28;1.30;;;0.40;;
4748;SDS011;2388;53.582;9.962;2024-01-07T05:49:55;1.30;;;0.75;;
4748;SDS011;2388;53.582;9.962;2024-01-07T05:52:20;1.10;;;0.60;;
4748;SDS011;2388;53.582;9.962;2024-01-07T05:54:46;0.80;;;0.60;;
4748;SDS011;2388;53.582;9.962;2024-01-07T05:57:11;0.80;;;0.50;;
4748;SDS011;2388;53.582;9.962;2024-01-07T05:59:37;1.13;;;0.50;;
4748;SDS011;2388;53.582;9.962;2024-01-07T06:02:03;1.27;;;0.60;;
4748;SDS011;2388;53.582;9.962;2024-01-07T06:04:28;1.43;;;0.70;;
4748;SDS011;2388;53.582;9.962;2024-01-07T06:06:54;1.07;;;0.50;;
4748;SDS011;2388;53.582;9.962;2024-01-07T06:09:19;0.70;;;0.50;;
4748;SDS011;2388;53.582;9.962;2024-01-07T06:11:45;1.13;;;0.57;;
4748;SDS011;2388;53.582;9.962;2024-01-07T06:14:10;1.10;;;0.60;;
4748;SDS011;2388;53.582;9.962;2024-01-07T06:16:36;1.50;;;0.60;;
4748;SDS011;2388;53.582;9.962;2024-01-07T06:19:01;2.10;;;0.63;;
4748;SDS011;2388;53.582;9.962;2024-01-07T06:21:26;0.70;;;0.50;;
4748;SDS011;2388;53.582;9.962;2024-01-07T06:23:52;4.83;;;0.80;;
4748;SDS011;2388;53.582;9.962;2024-01-07T06:26:17;0.80;;;0.80;;
4748;SDS011;2388;53.582;9.962;2024-01-07T06:28:43;0.63;;;0.60;;
4748;SDS011;2388;53.582;9.962;2024-01-07T06:31:08;0.83;;;0.70;;
4748;SDS011;2388;53.582;9.962;2024-01-07T06:33:34;1.70;;;0.80;;
4748;SDS011;2388;53.582;9.962;2024-01-07T06:36:00;2.00;;;0.90;;
4748;SDS011;2388;53.582;9.962;2024-01-07T06:38:26;0.80;;;0.40;;
4748;SDS011;2388;53.582;9.962;2024-01-07T06:40:51;0.53;;;0.50;;
4748;SDS011;2388;53.582;9.962;2024-01-07T06:43:19;1.30;;;0.60;;
4748;SDS011;2388;53.582;9.962;2024-01-07T06:45:44;2.57;;;0.57;;
4748;SDS011;2388;53.582;9.962;2024-01-07T06:48:10;0.63;;;0.63;;
4748;SDS011;2388;53.582;9.962;2024-01-07T06:50:35;2.70;;;2.50;;
4748;SDS011;2388;53.582;9.962;2024-01-07T06:53:01;2.20;;;1.10;;
4748;SDS011;2388;53.582;9.962;2024-01-07T06:55:26;4.27;;;3.77;;
4748;SDS011;2388;53.582;9.962;2024-01-07T06:57:52;4.40;;;0.87;;
4748;SDS011;2388;53.582;9.962;2024-01-07T07:00:17;2.17;;;1.10;;
4748;SDS011;2388;53.582;9.962;2024-01-07T07:02:43;6.00;;;0.80;;
4748;SDS011;2388;53.582;9.962;2024-01-07T07:05:08;1.37;;;1.10;;
4748;SDS011;2388;53.582;9.962;2024-01-07T07:07:34;1.37;;;1.17;;
4748;SDS011;2388;53.582;9.962;2024-01-07T07:10:00;2.50;;;1.10;;
4748;SDS011;2388;53.582;9.962;2024-01-07T07:12:25;8.43;;;1.30;;
4748;SDS011;2388;53.582;9.962;2024-01-07T07:14:51;1.37;;;1.00;;
4748;SDS011;2388;53.582;9.962;2024-01-07T07:17:16;3.97;;;1.43;;
4748;SDS011;2388;53.582;9.962;2024-01-07T07:19:42;1.73;;;1.63;;
4748;SDS011;2388;53.582;9.962;2024-01-07T07:22:07;1.10;;;1.00;;
4748;SDS011;2388;53.582;9.962;2024-01-07T07:24:33;1.50;;;1.40;;
4748;SDS011;2388;53.582;9.962;2024-01-07T07:26:58;1.40;;;1.30;;
4748;SDS011;2388;53.582;9.962;2024-01-07T07:29:24;3.07;;;1.20;;
4748;SDS011;2388;53.582;9.962;2024-01-07T07:31:49;2.70;;;1.80;;
4748;SDS011;2388;53.582;9.962;2024-01-07T07:34:15;3.43;;;2.17;;
4748;SDS011;2388;53.582;9.962;2024-01-07T07:36:40;1.47;;;1.37;;
4748;SDS011;2388;53.582;9.962;2024-01-07T07:39:08;2.92;;;1.70;;
4748;SDS011;2388;53.582;9.962;2024-01-07T07:41:34;5.38;;;2.05;;
4748;SDS011;2388;53.582;9.962;2024-01-07T07:44:00;1.50;;;1.40;;
4748;SDS011;2388;53.582;9.962;2024-01-07T07:46:25;2.20;;;1.70;;
4748;SDS011;2388;53.582;9.962;2024-01-07T07:48:51;1.80;;;1.70;;
4748;SDS011;2388;53.582;9.962;2024-01-07T07:51:16;1.60;;;1.40;;
4748;SDS011;2388;53.582;9.962;2024-01-07T07:53:42;3.20;;;1.30;;
4748;SDS011;2388;53.582;9.962;2024-01-07T07:56:08;2.17;;;1.97;;
4748;SDS011;2388;53.582;9.962;2024-01-07T07:58:34;4.25;;;2.10;;
4748;SDS011;2388;53.582;9.962;2024-01-07T08:00:59;2.57;;;2.20;;
4748;SDS011;2388;53.582;9.962;2024-01-07T08:03:25;3.33;;;1.80;;
4748;SDS011;2388;53.582;9.962;2024-01-07T08:05:50;4.53;;;2.13;;
4748;SDS011;2388;53.582;9.962;2024-01-07T08:08:16;2.03;;;1.60;;
4748;SDS011;2388;53.582;9.962;2024-01-07T08:10:42;3.10;;;1.67;;
4748;SDS011;2388;53.582;9.962;2024-01-07T08:13:08;1.80;;;1.70;;
4748;SDS011;2388;53.582;9.962;2024-01-07T08:15:34;2.90;;;1.50;;
4748;SDS011;2388;53.582;9.962;2024-01-07T08:17:59;1.93;;;1.83;;
4748;SDS011;2388;53.582;9.962;2024-01-07T08:20:27;2.22;;;1.70;;
4748;SDS011;2388;53.582;9.962;2024-01-07T08:22:52;1.97;;;1.53;;
4748;SDS011;2388;53.582;9.962;2024-01-07T08:25:18;3.20;;;1.70;;
4748;SDS011;2388;53.582;9.962;2024-01-07T08:27:43;1.90;;;1.80;;
4748;SDS011;2388;53.582;9.962;2024-01-07T08:30:10;4.18;;;1.75;;
4748;SDS011;2388;53.582;9.962;2024-01-07T08:32:38;2.03;;;1.80;;
4748;SDS011;2388;53.582;9.962;2024-01-07T08:35:04;3.93;;;1.40;;
4748;SDS011;2388;53.582;9.962;2024-01-07T08:37:30;1.73;;;1.47;;
4748;SDS011;2388;53.582;9.962;2024-01-07T08:39:55;2.80;;;1.83;;
4748;SDS011;2388;53.582;9.962;2024-01-07T08:42:21;1.57;;;1.47;;
4748;SDS011;2388;53.582;9.962;2024-01-07T08:44:46;3.27;;;1.40;;
4748;SDS011;2388;53.582;9.962;2024-01-07T08:47:12;5.13;;;1.70;;
4748;SDS011;2388;53.582;9.962;2024-01-07T08:49:38;3.73;;;1.50;;
4748;SDS011;2388;53.582;9.962;2024-01-07T08:52:03;3.87;;;1.90;;
4748;SDS011;2388;53.582;9.962;2024-01-07T08:54:29;4.43;;;1.80;;
4748;SDS011;2388;53.582;9.962;2024-01-07T08:56:55;1.80;;;1.67;;
4748;SDS011;2388;53.582;9.962;2024-01-07T08:59:20;2.97;;;1.50;;
4748;SDS011;2388;53.582;9.962;2024-01-07T09:01:46;3.83;;;1.20;;
4748;SDS011;2388;53.582;9.962;2024-01-07T09:04:11;4.50;;;1.83;;
4748;SDS011;2388;53.582;9.962;2024-01-07T09:06:37;1.40;;;1.30;;
4748;SDS011;2388;53.582;9.962;2024-01-07T09:09:03;1.77;;;1.67;;
4748;SDS011;2388;53.582;9.962;2024-01-07T09:11:31;1.30;;;1.20;;
4748;SDS011;2388;53.582;9.962;2024-01-07T09:13:57;1.30;;;1.00;;
4748;SDS011;2388;53.582;9.962;2024-01-07T09:16:22;1.30;;;1.20;;
4748;SDS011;2388;53.582;9.962;2024-01-07T09:18:48;2.63;;;1.50;;
4748;SDS011;2388;53.582;9.962;2024-01-07T09:21:13;1.47;;;1.37;;
4748;SDS011;2388;53.582;9.962;2024-01-07T09:23:40;1.40;;;1.30;;
4748;SDS011;2388;53.582;9.962;2024-01-07T09:26:06;1.33;;;1.17;;
4748;SDS011;2388;53.582;9.962;2024-01-07T09:28:32;1.33;;;1.23;;
4748;SDS011;2388;53.582;9.962;2024-01-07T09:30:57;3.33;;;1.30;;
4748;SDS011;2388;53.582;9.962;2024-01-07T09:33:23;1.70;;;1.20;;
4748;SDS011;2388;53.582;9.962;2024-01-07T09:35:51;1.30;;;1.20;;
4748;SDS011;2388;53.582;9.962;2024-01-07T09:38:19;1.55;;;1.33;;
4748;SDS011;2388;53.582;9.962;2024-01-07T09:40:44;3.97;;;1.60;;
4748;SDS011;2388;53.582;9.962;2024-01-07T09:43:10;2.50;;;1.47;;
4748;SDS011;2388;53.582;9.962;2024-01-07T09:45:36;2.00;;;0.90;;
4748;SDS011;2388;53.582;9.962;2024-01-07T09:48:04;1.92;;;1.80;;
4748;SDS011;2388;53.582;9.962;2024-01-07T09:50:30;4.22;;;1.92;;
4748;SDS011;2388;53.582;9.962;2024-01-07T09:52:56;2.33;;;2.13;;
4748;SDS011;2388;53.582;9.962;2024-01-07T09:55:27;2.38;;;2.17;;
4748;SDS011;2388;53.582;9.962;2024-01-07T09:57:58;9.60;;;1.70;;
4748;SDS011;2388;53.582;9.962;2024-01-07T10:00:25;3.43;;;1.57;;
4748;SDS011;2388;53.582;9.962;2024-01-07T10:02:52;1.63;;;1.52;;
4748;SDS011;2388;53.582;9.962;2024-01-07T10:05:18;1.50;;;1.40;;
4748;SDS011;2388;53.582;9.962;2024-01-07T10:07:43;1.80;;;1.70;;
4748;SDS011;2388;53.582;9.962;2024-01-07T10:10:13;3.33;;;1.87;;
4748;SDS011;2388;53.582;9.962;2024-01-07T10:12:43;1.77;;;1.42;;
4748;SDS011;2388;53.582;9.962;2024-01-07T10:15:10;2.10;;;1.92;;
4748;SDS011;2388;53.582;9.962;2024-01-07T10:17:35;1.43;;;1.33;;
4748;SDS011;2388;53.582;9.962;2024-01-07T10:20:01;3.53;;;1.47;;
4748;SDS011;2388;53.582;9.962;2024-01-07T10:22:29;2.45;;;1.20;;
4748;SDS011;2388;53.582;9.962;2024-01-07T10:24:55;1.60;;;1.50;;
4748;SDS011;2388;53.582;9.962;2024-01-07T10:27:22;2.30;;;1.70;;
4748;SDS011;2388;53.582;9.962;2024-01-07T10:29:47;2.63;;;1.55;;
4748;SDS011;2388;53.582;9.962;2024-01-07T10:32:17;1.60;;;1.35;;
4748;SDS011;2388;53.582;9.962;2024-01-07T10:34:45;4.13;;;1.73;;
4748;SDS011;2388;53.582;9.962;2024-01-07T10:37:12;1.30;;;1.20;;
4748;SDS011;2388;53.582;9.962;2024-01-07T10:39:38;1.52;;;1.30;;
4748;SDS011;2388;53.582;9.962;2024-01-07T10:42:04;1.30;;;1.20;;
4748;SDS011;2388;53.582;9.962;2024-01-07T10:44:30;2.65;;;1.40;;
4748;SDS011;2388;53.582;9.962;2024-01-07T10:46:57;1.55;;;1.45;;
4748;SDS011;2388;53.582;9.962;2024-01-07T10:49:24;2.55;;;1.33;;
4748;SDS011;2388;53.582;9.962;2024-01-07T10:52:04;3.05;;;1.52;;
4748;SDS011;2388;53.582;9.962;2024-01-07T10:54:31;2.88;;;1.70;;
4748;SDS011;2388;53.582;9.962;2024-01-07T10:57:04;1.33;;;1.23;;
4748;SDS011;2388;53.582;9.962;2024-01-07T10:59:37;1.45;;;1.35;;
4748;SDS011;2388;53.582;9.962;2024-01-07T11:02:04;3.10;;;1.20;;
4748;SDS011;2388;53.582;9.962;2024-01-07T11:04:37;1.40;;;1.30;;
4748;SDS011;2388;53.582;9.962;2024-01-07T11:10:10;1.60;;;1.45;;
4748;SDS011;2388;53.582;9.962;2024-01-07T11:12:39;2.97;;;1.50;;
4748;SDS011;2388;53.582;9.962;2024-01-07T11:15:05;4.40;;;2.37;;
4748;SDS011;2388;53.582;9.962;2024-01-07T11:20:18;2.28;;;1.60;;
4748;SDS011;2388;53.582;9.962;2024-01-07T11:22:45;3.03;;;1.75;;
4748;SDS011;2388;53.582;9.962;2024-01-07T11:25:33;1.80;;;1.70;;
4748;SDS011;2388;53.582;9.962;2024-01-07T11:27:58;1.70;;;1.10;;
4748;SDS011;2388;53.582;9.962;2024-01-07T11:30:26;3.95;;;1.55;;
4748;SDS011;2388;53.582;9.962;2024-01-07T11:32:58;1.57;;;1.47;;
4748;SDS011;2388;53.582;9.962;2024-01-07T11:38:19;1.50;;;1.27;;
4748;SDS011;2388;53.582;9.962;2024-01-07T11:40:45;6.50;;;1.13;;
4748;SDS011;2388;53.582;9.962;2024-01-07T11:43:13;2.35;;;1.48;;
4748;SDS011;2388;53.582;9.962;2024-01-07T11:45:39;1.63;;;1.53;;
4748;SDS011;2388;53.582;9.962;2024-01-07T11:48:05;1.93;;;1.10;;
4748;SDS011;2388;53.582;9.962;2024-01-07T11:50:30;1.65;;;1.55;;
4748;SDS011;2388;53.582;9.962;2024-01-07T11:52:56;2.03;;;1.40;;
4748;SDS011;2388;53.582;9.962;2024-01-07T11:55:22;1.40;;;1.30;;
4748;SDS011;2388;53.582;9.962;2024-01-07T11:57:48;1.60;;;1.50;;
4748;SDS011;2388;53.582;9.962;2024-01-07T12:00:14;2.70;;;1.70;;
4748;SDS011;2388;53.582;9.962;2024-01-07T12:02:39;5.50;;;1.87;;
4748;SDS011;2388;53.582;9.962;2024-01-07T12:05:05;2.77;;;1.90;;
4748;SDS011;2388;53.582;9.962;2024-01-07T12:07:31;4.50;;;1.17;;
4748;SDS011;2388;53.582;9.962;2024-01-07T12:09:57;5.32;;;1.33;;
4748;SDS011;2388;53.582;9.962;2024-01-07T12:12:23;1.43;;;1.10;;
4748;SDS011;2388;53.582;9.962;2024-01-07T12:14:49;1.40;;;1.30;;
4748;SDS011;2388;53.582;9.962;2024-01-07T12:17:18;1.53;;;1.10;;
4748;SDS011;2388;53.582;9.962;2024-01-07T12:19:43;3.45;;;1.25;;
4748;SDS011;2388;53.582;9.962;2024-01-07T12:22:09;1.50;;;1.40;;
4748;SDS011;2388;53.582;9.962;2024-01-07T12:24:34;1.73;;;1.20;;
4748;SDS011;2388;53.582;9.962;2024-01-07T12:27:06;1.70;;;1.43;;
4748;SDS011;2388;53.582;9.962;2024-01-07T12:29:32;1.65;;;1.52;;
4748;SDS011;2388;53.582;9.962;2024-01-07T12:31:58;1.93;;;1.37;;
4748;SDS011;2388;53.582;9.962;2024-01-07T12:34:25;1.50;;;1.40;;
4748;SDS011;2388;53.582;9.962;2024-01-07T12:36:50;4.90;;;1.20;;
4748;SDS011;2388;53.582;9.962;2024-01-07T12:39:20;1.50;;;1.40;;
4748;SDS011;2388;53.582;9.962;2024-01-07T12:41:45;3.63;;;1.30;;
4748;SDS011;2388;53.582;9.962;2024-01-07T12:44:12;4.28;;;1.52;;
4748;SDS011;2388;53.582;9.962;2024-01-07T12:46:37;1.90;;;1.23;;
4748;SDS011;2388;53.582;9.962;2024-01-07T12:49:03;2.13;;;1.27;;
4748;SDS011;2388;53.582;9.962;2024-01-07T12:51:28;3.67;;;1.70;;
4748;SDS011;2388;53.582;9.962;2024-01-07T12:53:54;2.17;;;1.50;;
4748;SDS011;2388;53.582;9.962;2024-01-07T12:56:21;1.17;;;1.08;;
4748;SDS011;2388;53.582;9.962;2024-01-07T12:58:47;1.00;;;0.90;;
4748;SDS011;2388;53.582;9.962;2024-01-07T13:01:12;2.00;;;1.30;;
4748;SDS011;2388;53.582;9.962;2024-01-07T13:03:38;1.05;;;0.95;;
4748;SDS011;2388;53.582;9.962;2024-01-07T13:06:04;3.03;;;1.40;;
4748;SDS011;2388;53.582;9.962;2024-01-07T13:08:31;2.35;;;1.15;;
4748;SDS011;2388;53.582;9.962;2024-01-07T13:10:58;1.67;;;1.30;;
4748;SDS011;2388;53.582;9.962;2024-01-07T13:13:24;1.65;;;0.95;;
4748;SDS011;2388;53.582;9.962;2024-01-07T13:15:50;1.60;;;0.97;;
4748;SDS011;2388;53.582;9.962;2024-01-07T13:18:15;0.93;;;0.83;;
4748;SDS011;2388;53.582;9.962;2024-01-07T13:20:41;0.70;;;0.70;;
4748;SDS011;2388;53.582;9.962;2024-01-07T13:23:06;1.50;;;1.00;;
4748;SDS011;2388;53.582;9.962;2024-01-07T13:25:32;1.07;;;1.07;;
4748;SDS011;2388;53.582;9.962;2024-01-07T13:27:57;1.07;;;0.83;;
4748;SDS011;2388;53.582;9.962;2024-01-07T13:30:24;1.20;;;1.10;;
4748;SDS011;2388;53.582;9.962;2024-01-07T13:32:49;1.10;;;1.00;;
4748;SDS011;2388;53.582;9.962;2024-01-07T13:35:16;1.45;;;0.95;;
4748;SDS011;2388;53.582;9.962;2024-01-07T13:37:42;2.30;;;1.13;;
4748;SDS011;2388;53.582;9.962;2024-01-07T13:40:08;0.70;;;0.60;;
4748;SDS011;2388;53.582;9.962;2024-01-07T13:42:39;2.78;;;0.80;;
4748;SDS011;2388;53.582;9.962;2024-01-07T13:45:05;1.10;;;1.00;;
4748;SDS011;2388;53.582;9.962;2024-01-07T13:47:30;0.90;;;0.70;;
4748;SDS011;2388;53.582;9.962;2024-01-07T13:49:57;1.05;;;0.70;;
4748;SDS011;2388;53.582;9.962;2024-01-07T13:52:22;2.73;;;1.10;;
4748;SDS011;2388;53.582;9.962;2024-01-07T13:54:48;1.03;;;0.70;;
4748;SDS011;2388;53.582;9.962;2024-01-07T13:57:13;3.00;;;1.00;;
4748;SDS011;2388;53.582;9.962;2024-01-07T13:59:39;1.70;;;1.10;;
4748;SDS011;2388;53.582;9.962;2024-01-07T14:02:07;0.97;;;0.73;;
4748;SDS011;2388;53.582;9.962;2024-01-07T14:04:34;2.45;;;0.65;;
4748;SDS011;2388;53.582;9.962;2024-01-07T14:06:59;1.30;;;0.70;;
4748;SDS011;2388;53.582;9.962;2024-01-07T14:09:25;0.90;;;0.77;;
4748;SDS011;2388;53.582;9.962;2024-01-07T14:11:51;1.40;;;0.83;;
4748;SDS011;2388;53.582;9.962;2024-01-07T14:14:17;8.15;;;0.85;;
4748;SDS011;2388;53.582;9.962;2024-01-07T14:16:44;1.15;;;0.95;;
4748;SDS011;2388;53.582;9.962;2024-01-07T14:19:10;0.80;;;0.80;;
4748;SDS011;2388;53.582;9.962;2024-01-07T14:21:35;0.80;;;0.80;;
4748;SDS011;2388;53.582;9.962;2024-01-07T14:24:01;1.77;;;0.90;;
4748;SDS011;2388;53.582;9.962;2024-01-07T14:26:27;1.67;;;0.60;;
4748;SDS011;2388;53.582;9.962;2024-01-07T14:28:53;1.27;;;0.73;;
4748;SDS011;2388;53.582;9.962;2024-01-07T14:31:18;3.17;;;1.50;;
4748;SDS011;2388;53.582;9.962;2024-01-07T14:33:44;1.30;;;0.93;;
4748;SDS011;2388;53.582;9.962;2024-01-07T14:36:09;1.03;;;0.93;;
4748;SDS011;2388;53.582;9.962;2024-01-07T14:38:42;1.27;;;0.82;;
4748;SDS011;2388;53.582;9.962;2024-01-07T14:41:12;7.53;;;0.63;;
4748;SDS011;2388;53.582;9.962;2024-01-07T14:43:41;1.20;;;0.88;;
4748;SDS011;2388;53.582;9.962;2024-01-07T14:46:07;1.43;;;1.07;;
4748;SDS011;2388;53.582;9.962;2024-01-07T14:48:33;1.50;;;1.40;;
4748;SDS011;2388;53.582;9.962;2024-01-07T14:50:59;0.93;;;0.93;;
4748;SDS011;2388;53.582;9.962;2024-01-07T14:53:25;1.00;;;0.83;;
4748;SDS011;2388;53.582;9.962;2024-01-07T14:55:51;1.52;;;1.17;;
4748;SDS011;2388;53.582;9.962;2024-01-07T14:58:16;1.37;;;0.80;;
4748;SDS011;2388;53.582;9.962;2024-01-07T15:00:43;1.75;;;1.08;;
4748;SDS011;2388;53.582;9.962;2024-01-07T15:03:08;0.63;;;0.63;;
4748;SDS011;2388;53.582;9.962;2024-01-07T15:05:34;0.80;;;0.80;;
4748;SDS011;2388;53.582;9.962;2024-01-07T15:08:00;0.73;;;0.70;;
4748;SDS011;2388;53.582;9.962;2024-01-07T15:10:25;0.93;;;0.83;;
4748;SDS011;2388;53.582;9.962;2024-01-07T15:12:51;1.03;;;0.70;;
4748;SDS011;2388;53.582;9.962;2024-01-07T15:15:17;0.70;;;0.70;;
4748;SDS011;2388;53.582;9.962;2024-01-07T15:17:43;0.70;;;0.70;;